Belton, Texas
Current Conditions -  °F | °C
As of 10:55 AM on Thursday 23 Oct 2014 (Local Time) from KTPL Reporting Station
Scattered Clouds Scattered Clouds  
Wind Chill: 72°   Ceiling: Unl
Heat Index: 72°   Visibility: 9mi
Dew Point: 55°   Wind: 6mph
Humidity: 57%   Direction: 140°SE
Pressure: 30.15"   Gusts: NA
Location:  31.06°N, 97.46°W
Report Text: KTPL 231555Z AUTO 14005KT 9SM SCT120 22/13 A3015 RMK AO1
Loading
Personal Weather Stations






























Interactive Weather Map
Tropical Storm Tracking
New forecast layout! Learn more

10-Day Weather Forecast

Advertisements
Track Severe Weather on mobile